Time;durP1;ratioP1;P1;durP2;ratioP2;P2;SDS_P1;SDS_P2;PMS_P1;PMS_P2;Temp;Humidity;BMP_temperature;BMP_pressure;BME280_temperature;BME280_humidity;BME280_pressure;Samples;Min_cycle;Max_cycle;Signal;HPM_P1;HPM_P2
2023/03/06 00:00:38;;;;;;;5.45;2.28;;;1.60;99.90;;;;;;5014648;28;20041;-34
2023/03/06 00:03:05;;;;;;;4.72;2.53;;;1.60;99.90;;;;;;5014359;28;20483;-34
2023/03/06 00:05:31;;;;;;;6.03;2.60;;;1.50;99.90;;;;;;5014336;28;20475;-34
2023/03/06 00:07:57;;;;;;;4.03;2.53;;;1.50;99.90;;;;;;5005640;28;20117;-34
2023/03/06 00:10:28;;;;;;;4.80;2.40;;;1.60;99.90;;;;;;5003119;28;20120;-34
2023/03/06 00:12:56;;;;;;;4.95;2.58;;;1.60;99.90;;;;;;5013962;28;20483;-34
2023/03/06 00:15:23;;;;;;;5.10;2.83;;;1.60;99.90;;;;;;5013548;28;20038;-37
2023/03/06 00:17:49;;;;;;;5.22;2.47;;;1.60;99.90;;;;;;5013185;28;20491;-36
2023/03/06 00:20:15;;;;;;;5.35;2.72;;;1.70;99.90;;;;;;5013217;28;20034;-38
2023/03/06 00:22:40;;;;;;;4.80;2.60;;;1.70;99.90;;;;;;5005015;28;20100;-37
2023/03/06 00:25:07;;;;;;;5.95;2.97;;;1.70;99.90;;;;;;5012506;28;20380;-37
2023/03/06 00:27:34;;;;;;;5.70;2.45;;;1.70;99.90;;;;;;5012768;28;20059;-37
2023/03/06 00:30:00;;;;;;;7.35;2.50;;;1.80;99.90;;;;;;5004820;28;20696;-37
2023/03/06 00:32:27;;;;;;;8.65;3.15;;;1.70;99.90;;;;;;5009154;28;20089;-38
2023/03/06 00:34:53;;;;;;;5.55;2.85;;;1.70;99.90;;;;;;5012890;28;20377;-37
2023/03/06 00:37:20;;;;;;;5.28;2.30;;;1.70;99.90;;;;;;5013843;28;20041;-37
2023/03/06 00:39:46;;;;;;;7.47;2.80;;;1.70;99.90;;;;;;5008535;28;20511;-36
2023/03/06 00:42:12;;;;;;;5.50;2.83;;;1.70;99.90;;;;;;5011299;28;20033;-37
2023/03/06 00:44:38;;;;;;;5.53;3.00;;;1.80;99.90;;;;;;5012268;28;20041;-38
2023/03/06 00:47:03;;;;;;;4.50;2.90;;;1.70;99.90;;;;;;5013420;28;20030;-36
2023/03/06 00:49:29;;;;;;;6.07;2.95;;;1.70;99.90;;;;;;5011336;28;20476;-36
2023/03/06 00:51:55;;;;;;;5.47;2.67;;;1.70;99.90;;;;;;4997890;28;20030;-36
2023/03/06 00:54:20;;;;;;;5.78;2.90;;;1.80;99.90;;;;;;5010483;28;20042;-36
2023/03/06 00:56:46;;;;;;;4.25;2.50;;;1.70;99.90;;;;;;5011040;28;20034;-40
2023/03/06 00:59:12;;;;;;;6.20;2.63;;;1.80;99.90;;;;;;4999128;28;20479;-36
2023/03/06 01:01:37;;;;;;;5.63;2.40;;;1.80;99.90;;;;;;5010783;28;20126;-37
2023/03/06 01:04:04;;;;;;;5.20;2.80;;;1.80;99.90;;;;;;5007955;28;20479;-37
2023/03/06 01:06:30;;;;;;;5.82;2.60;;;1.80;99.90;;;;;;5010477;28;20038;-33
2023/03/06 01:08:56;;;;;;;6.53;3.30;;;1.90;99.90;;;;;;5011569;28;20509;-33
2023/03/06 01:11:21;;;;;;;6.78;3.03;;;1.90;99.90;;;;;;5011942;28;20025;-33
2023/03/06 01:13:47;;;;;;;6.00;2.95;;;1.90;99.90;;;;;;5003263;28;20034;-33
2023/03/06 01:16:15;;;;;;;7.72;3.60;;;1.90;99.90;;;;;;5000269;28;20046;-33
2023/03/06 01:18:41;;;;;;;4.38;2.83;;;1.90;99.90;;;;;;5006855;28;20137;-33
2023/03/06 01:21:07;;;;;;;5.80;3.15;;;2.00;99.90;;;;;;5005156;28;20121;-33
2023/03/06 01:23:33;;;;;;;5.72;3.03;;;2.00;99.90;;;;;;5011170;28;20037;-33
2023/03/06 01:25:59;;;;;;;8.07;3.28;;;2.10;99.90;;;;;;5010112;28;20411;-33
2023/03/06 01:28:26;;;;;;;5.80;3.28;;;2.00;99.90;;;;;;5008874;28;20319;-33
2023/03/06 01:30:51;;;;;;;8.23;3.80;;;2.10;99.90;;;;;;5010814;28;20469;-33
2023/03/06 01:33:17;;;;;;;5.68;3.75;;;2.10;99.90;;;;;;5010190;28;20113;-33
2023/03/06 01:35:43;;;;;;;8.52;4.03;;;2.10;99.90;;;;;;5003331;28;20057;-33
2023/03/06 01:38:09;;;;;;;7.32;3.80;;;2.10;99.90;;;;;;5005511;28;20038;-33
2023/03/06 01:40:36;;;;;;;6.97;4.25;;;2.10;99.90;;;;;;5011448;28;20042;-33
2023/03/06 01:43:23;;;;;;;6.95;3.92;;;2.20;99.90;;;;;;5003116;28;20088;-33
2023/03/06 01:45:48;;;;;;;5.40;4.18;;;2.20;99.90;;;;;;5007570;28;20053;-33
2023/03/06 01:48:16;;;;;;;6.78;4.45;;;2.20;99.90;;;;;;5005469;28;20418;-33
2023/03/06 01:50:42;;;;;;;6.55;4.28;;;2.30;99.90;;;;;;4999955;28;20116;-33
2023/03/06 01:53:08;;;;;;;8.35;4.38;;;2.20;99.90;;;;;;4999085;28;20037;-33
2023/03/06 01:55:35;;;;;;;6.00;4.40;;;2.30;99.90;;;;;;5002423;28;20034;-33
2023/03/06 01:58:10;;;;;;;5.55;4.25;;;2.20;99.90;;;;;;5010074;28;20053;-33
2023/03/06 02:00:36;;;;;;;8.07;5.10;;;2.20;99.90;;;;;;5007156;28;20048;-33
2023/03/06 02:03:34;;;;;;;5.95;4.45;;;2.30;99.90;;;;;;5008679;28;20402;-33
2023/03/06 02:05:59;;;;;;;11.57;4.82;;;2.30;99.90;;;;;;4995523;28;20458;-33
2023/03/06 02:08:26;;;;;;;8.73;4.40;;;2.30;99.90;;;;;;5010799;28;20042;-33
2023/03/06 02:11:04;;;;;;;6.43;4.75;;;2.30;99.90;;;;;;5009199;28;20092;-33
2023/03/06 02:13:30;;;;;;;5.95;4.57;;;2.30;99.90;;;;;;5003707;28;20076;-33
2023/03/06 02:15:57;;;;;;;8.35;4.80;;;2.30;99.90;;;;;;5008045;28;20070;-33
2023/03/06 02:18:22;;;;;;;7.85;5.05;;;2.30;99.90;;;;;;5010847;28;20053;-33
2023/03/06 02:20:53;;;;;;;7.43;5.35;;;2.20;99.90;;;;;;5009273;28;20046;-33
2023/03/06 02:23:35;;;;;;;11.32;5.78;;;2.30;99.90;;;;;;5010215;28;20042;-33
2023/03/06 02:26:02;;;;;;;7.07;5.35;;;2.30;99.90;;;;;;5008092;28;20624;-33
2023/03/06 02:28:28;;;;;;;7.57;5.60;;;2.30;99.90;;;;;;5006172;28;20029;-33
2023/03/06 02:30:55;;;;;;;8.80;5.72;;;2.30;99.90;;;;;;5009141;28;20037;-33
2023/03/06 02:33:26;;;;;;;7.82;5.88;;;2.30;99.90;;;;;;5002057;28;20053;-33
2023/03/06 02:35:58;;;;;;;7.93;6.10;;;2.30;99.90;;;;;;5000942;28;20050;-33
2023/03/06 02:38:28;;;;;;;9.35;6.78;;;2.30;99.90;;;;;;4999055;28;20949;-33
2023/03/06 02:40:56;;;;;;;11.25;6.00;;;2.30;99.90;;;;;;5000418;28;20038;-33
2023/03/06 02:43:27;;;;;;;8.80;6.18;;;2.30;99.90;;;;;;5006564;28;20411;-33
2023/03/06 02:45:53;;;;;;;8.35;6.38;;;2.40;99.90;;;;;;5008582;28;20514;-33
2023/03/06 02:48:19;;;;;;;9.88;7.32;;;2.40;99.90;;;;;;5007431;28;20182;-33
2023/03/06 02:50:46;;;;;;;9.18;6.60;;;2.40;99.90;;;;;;5006763;28;20034;-33
2023/03/06 02:53:13;;;;;;;12.20;6.55;;;2.40;99.90;;;;;;5005833;28;20402;-33
2023/03/06 02:55:39;;;;;;;9.30;7.00;;;2.40;99.90;;;;;;4998231;28;20117;-33
2023/03/06 02:58:05;;;;;;;11.05;7.35;;;2.50;99.90;;;;;;5008632;28;20034;-33
2023/03/06 03:00:31;;;;;;;11.05;7.97;;;2.40;99.90;;;;;;4998121;28;20362;-33
2023/03/06 03:02:57;;;;;;;14.10;7.93;;;2.50;99.90;;;;;;4999128;28;20034;-33
2023/03/06 03:05:23;;;;;;;7.95;6.93;;;2.50;99.90;;;;;;5008819;28;20038;-33
2023/03/06 03:07:48;;;;;;;10.70;7.00;;;2.50;99.90;;;;;;5010754;28;20030;-34
2023/03/06 03:10:14;;;;;;;10.23;7.70;;;2.50;99.90;;;;;;5011979;28;20029;-33
2023/03/06 03:12:40;;;;;;;10.00;7.63;;;2.50;99.90;;;;;;5001321;28;20582;-34
2023/03/06 03:15:07;;;;;;;10.55;7.97;;;2.50;99.90;;;;;;4996841;28;20034;-33
2023/03/06 03:17:37;;;;;;;9.05;7.55;;;2.50;99.90;;;;;;5001349;28;20402;-33
2023/03/06 03:20:04;;;;;;;10.27;7.60;;;2.50;99.90;;;;;;5003474;28;20503;-33
2023/03/06 03:22:30;;;;;;;11.88;7.65;;;2.50;99.90;;;;;;5012048;28;20033;-33
2023/03/06 03:24:56;;;;;;;12.95;8.18;;;2.60;99.90;;;;;;5010345;28;20053;-33
2023/03/06 03:27:21;;;;;;;12.07;8.68;;;2.50;99.90;;;;;;5013465;28;20210;-33
2023/03/06 03:29:47;;;;;;;11.68;8.32;;;2.60;99.90;;;;;;5013707;28;20034;-35
2023/03/06 03:32:13;;;;;;;13.63;9.18;;;2.60;99.90;;;;;;5012782;28;20112;-32
2023/03/06 03:34:38;;;;;;;11.77;8.77;;;2.60;99.90;;;;;;5006328;28;20038;-32
2023/03/06 03:37:04;;;;;;;12.73;9.35;;;2.60;99.90;;;;;;5001114;28;20035;-32
2023/03/06 03:39:30;;;;;;;12.48;9.73;;;2.60;99.90;;;;;;4999309;28;20160;-32
2023/03/06 03:41:56;;;;;;;11.52;9.88;;;2.60;99.90;;;;;;5005579;28;20041;-32
2023/03/06 03:44:21;;;;;;;15.38;10.50;;;2.60;99.90;;;;;;5004275;28;20069;-32
2023/03/06 03:46:47;;;;;;;12.88;9.90;;;2.60;99.90;;;;;;5027436;22;20057;-32
2023/03/06 03:49:13;;;;;;;14.77;10.68;;;2.60;99.90;;;;;;5054890;28;20435;-37
2023/03/06 03:51:39;;;;;;;14.85;10.77;;;2.70;99.90;;;;;;5058041;28;20048;-32
2023/03/06 03:54:05;;;;;;;13.25;10.32;;;2.70;99.90;;;;;;5048665;28;20420;-32
2023/03/06 03:56:32;;;;;;;15.10;11.63;;;2.60;99.90;;;;;;5045933;28;20040;-32
2023/03/06 03:58:58;;;;;;;15.40;10.02;;;2.60;99.90;;;;;;5042578;28;20029;-32
2023/03/06 04:01:24;;;;;;;12.38;9.77;;;2.60;99.90;;;;;;5051405;28;20037;-32
2023/03/06 04:03:49;;;;;;;12.20;9.88;;;2.60;99.90;;;;;;5049399;28;20033;-33
2023/03/06 04:06:16;;;;;;;11.82;8.85;;;2.70;99.90;;;;;;5041635;28;20540;-32
2023/03/06 04:08:41;;;;;;;11.48;8.60;;;2.60;99.90;;;;;;5047255;28;20049;-32
2023/03/06 04:11:07;;;;;;;9.02;7.30;;;2.70;99.90;;;;;;5047650;28;20569;-33
2023/03/06 04:13:33;;;;;;;11.50;8.02;;;2.70;99.90;;;;;;5049794;28;20316;-32
2023/03/06 04:15:59;;;;;;;8.93;7.57;;;2.60;99.90;;;;;;5042549;28;20215;-32
2023/03/06 04:18:24;;;;;;;7.88;7.07;;;2.60;99.90;;;;;;5038124;28;20072;-32
2023/03/06 04:20:50;;;;;;;8.77;6.55;;;2.60;99.90;;;;;;5035994;28;20052;-33
2023/03/06 04:23:17;;;;;;;7.72;6.65;;;2.60;99.90;;;;;;5035590;28;20045;-33
2023/03/06 04:25:43;;;;;;;9.23;6.22;;;2.70;99.90;;;;;;5056265;28;20093;-32
2023/03/06 04:28:10;;;;;;;7.93;5.85;;;2.70;99.90;;;;;;5048172;28;20068;-32
2023/03/06 04:30:36;;;;;;;6.70;5.90;;;2.70;99.90;;;;;;5055095;28;20048;-32
2023/03/06 04:33:02;;;;;;;7.60;5.63;;;2.70;99.90;;;;;;5048287;28;20064;-32
2023/03/06 04:35:28;;;;;;;5.65;5.03;;;2.70;99.90;;;;;;5051583;28;20502;-32
2023/03/06 04:37:54;;;;;;;6.63;5.00;;;2.70;99.90;;;;;;5049958;28;20048;-32
2023/03/06 04:40:28;;;;;;;5.68;4.32;;;2.70;99.90;;;;;;5045198;28;20033;-32
2023/03/06 04:42:56;;;;;;;5.13;4.05;;;2.70;99.90;;;;;;5043129;28;20409;-33
2023/03/06 04:45:22;;;;;;;4.30;3.90;;;2.70;99.90;;;;;;5037815;28;20041;-32
2023/03/06 04:47:48;;;;;;;4.25;3.13;;;2.70;99.90;;;;;;5052604;28;20041;-32
2023/03/06 04:50:15;;;;;;;2.08;1.98;;;2.70;99.90;;;;;;5074294;28;20400;-32
2023/03/06 04:52:41;;;;;;;1.60;1.50;;;2.70;99.90;;;;;;5074361;28;20036;-32
2023/03/06 04:55:08;;;;;;;2.00;1.60;;;2.70;99.90;;;;;;5074072;28;20495;-32
2023/03/06 04:57:39;;;;;;;2.17;1.48;;;2.60;99.90;;;;;;5074048;28;20045;-32
2023/03/06 05:00:08;;;;;;;1.40;1.25;;;2.60;99.90;;;;;;5073205;28;20072;-31
2023/03/06 05:02:35;;;;;;;1.45;1.35;;;2.50;99.90;;;;;;5074201;28;20045;-32
2023/03/06 05:05:01;;;;;;;1.20;1.10;;;2.40;99.90;;;;;;5074055;28;20052;-32
2023/03/06 05:07:27;;;;;;;1.52;1.40;;;2.40;99.90;;;;;;5064628;28;20343;-32
2023/03/06 05:09:52;;;;;;;1.42;1.33;;;2.40;99.90;;;;;;5052740;28;20041;-34
2023/03/06 05:12:18;;;;;;;1.80;1.70;;;2.40;99.90;;;;;;5061512;28;20039;-32
2023/03/06 05:14:43;;;;;;;1.70;1.60;;;2.30;99.90;;;;;;5073655;28;20040;-34
2023/03/06 05:17:09;;;;;;;1.70;1.60;;;2.30;99.90;;;;;;5072328;28;20044;-32
2023/03/06 05:19:35;;;;;;;1.80;1.70;;;2.30;99.90;;;;;;5073888;28;20489;-32
2023/03/06 05:22:01;;;;;;;2.15;1.70;;;2.30;99.90;;;;;;5069650;28;20094;-32
2023/03/06 05:24:26;;;;;;;2.15;1.95;;;2.20;99.90;;;;;;5035915;28;20521;-32
2023/03/06 05:26:52;;;;;;;1.67;1.58;;;2.20;99.90;;;;;;5053342;28;20043;-32
2023/03/06 05:29:18;;;;;;;1.88;1.60;;;2.20;99.90;;;;;;5053899;28;20043;-32
2023/03/06 05:31:44;;;;;;;1.60;1.50;;;2.20;99.90;;;;;;5053596;28;20033;-32
2023/03/06 05:34:12;;;;;;;1.85;1.70;;;2.10;99.90;;;;;;5053544;28;20051;-31
2023/03/06 05:36:38;;;;;;;1.90;1.70;;;2.10;99.90;;;;;;5053325;28;20509;-32
2023/03/06 05:39:05;;;;;;;1.63;1.50;;;2.10;99.90;;;;;;5053142;28;20040;-32
2023/03/06 05:41:31;;;;;;;2.40;1.58;;;2.10;99.90;;;;;;5053712;28;20056;-32
2023/03/06 05:43:56;;;;;;;2.35;1.42;;;2.00;99.90;;;;;;5066943;28;20048;-32
2023/03/06 05:46:22;;;;;;;1.70;1.45;;;2.00;99.90;;;;;;5072879;28;20083;-32
2023/03/06 05:48:48;;;;;;;1.77;1.50;;;1.90;99.90;;;;;;5073102;28;20037;-32
2023/03/06 05:51:14;;;;;;;2.33;1.52;;;1.90;99.90;;;;;;5073584;28;20251;-32
2023/03/06 05:53:39;;;;;;;1.65;1.30;;;1.90;99.90;;;;;;5071837;28;20045;-32
2023/03/06 05:56:07;;;;;;;1.63;1.13;;;1.80;99.90;;;;;;5073381;28;20493;-32
2023/03/06 05:58:33;;;;;;;2.75;1.40;;;1.90;99.90;;;;;;5070707;28;20040;-32
2023/03/06 06:00:59;;;;;;;1.50;1.33;;;1.80;99.90;;;;;;5052455;28;20055;-32
2023/03/06 06:03:25;;;;;;;1.23;1.15;;;1.80;99.90;;;;;;5037096;28;20041;-32
2023/03/06 06:05:51;;;;;;;3.15;1.40;;;1.70;99.90;;;;;;5033275;28;20050;-32
2023/03/06 06:08:18;;;;;;;1.83;1.25;;;1.70;99.90;;;;;;5033038;28;20396;-32
2023/03/06 06:10:43;;;;;;;2.33;1.17;;;1.70;99.90;;;;;;5031335;28;20033;-32
2023/03/06 06:13:09;;;;;;;1.38;1.02;;;1.60;99.90;;;;;;5032909;28;20041;-34
2023/03/06 06:15:37;;;;;;;3.35;1.50;;;1.60;99.90;;;;;;5034792;28;20041;-33
2023/03/06 06:18:02;;;;;;;2.90;1.48;;;1.50;99.90;;;;;;5038831;28;20273;-35
2023/03/06 06:20:28;;;;;;;3.97;2.45;;;1.40;99.90;;;;;;5049018;28;20060;-34
2023/03/06 06:22:54;;;;;;;3.42;2.10;;;1.30;99.90;;;;;;5047633;28;20044;-32
2023/03/06 06:25:20;;;;;;;6.43;3.38;;;1.20;99.90;;;;;;5044075;28;20037;-35
2023/03/06 06:27:45;;;;;;;5.55;4.15;;;1.20;99.90;;;;;;5044637;28;20041;-35
2023/03/06 06:30:12;;;;;;;5.65;4.25;;;1.10;99.90;;;;;;5026360;28;20055;-35
2023/03/06 06:32:38;;;;;;;6.82;4.00;;;1.10;99.90;;;;;;5045926;28;20029;-35
2023/03/06 06:35:04;;;;;;;4.30;3.17;;;1.00;99.90;;;;;;5046802;28;20072;-35
2023/03/06 06:37:30;;;;;;;3.25;2.40;;;0.90;99.90;;;;;;5047694;28;20037;-34
2023/03/06 06:39:56;;;;;;;3.40;2.72;;;0.90;99.90;;;;;;5047829;28;20486;-35
2023/03/06 06:42:22;;;;;;;2.95;2.17;;;0.90;99.90;;;;;;5044550;28;20040;-35
2023/03/06 06:44:47;;;;;;;2.15;1.95;;;0.90;99.90;;;;;;5047648;28;20040;-35
2023/03/06 06:47:13;;;;;;;2.97;2.13;;;0.90;99.90;;;;;;5043798;28;20346;-35
2023/03/06 06:49:39;;;;;;;4.65;2.53;;;0.90;99.90;;;;;;5047480;28;20041;-35
2023/03/06 06:52:05;;;;;;;2.33;2.10;;;0.90;99.90;;;;;;5042298;28;20044;-35
2023/03/06 06:54:35;;;;;;;3.90;2.53;;;0.90;99.90;;;;;;5039250;28;20055;-35
2023/03/06 06:57:00;;;;;;;2.47;2.22;;;1.00;99.90;;;;;;5047650;28;20448;-35
2023/03/06 06:59:26;;;;;;;3.88;2.15;;;1.00;99.90;;;;;;5044569;28;20049;-35
2023/03/06 07:01:52;;;;;;;2.42;1.85;;;1.00;99.90;;;;;;5038225;28;20473;-35
2023/03/06 07:04:18;;;;;;;2.60;2.38;;;1.10;99.90;;;;;;5040888;28;20085;-35
2023/03/06 07:06:44;;;;;;;2.60;2.40;;;1.10;99.90;;;;;;5041550;28;20029;-35
2023/03/06 07:09:11;;;;;;;4.05;2.60;;;1.20;99.90;;;;;;5041648;28;20057;-33
2023/03/06 07:11:38;;;;;;;3.60;2.33;;;1.20;99.90;;;;;;5047969;28;20040;-34
2023/03/06 07:14:04;;;;;;;2.65;1.90;;;1.30;99.90;;;;;;5042860;28;20052;-35
2023/03/06 07:16:29;;;;;;;4.43;2.30;;;1.30;99.90;;;;;;5048402;28;20393;-36
2023/03/06 07:18:55;;;;;;;5.05;2.30;;;1.40;99.90;;;;;;5048748;28;20045;-36
2023/03/06 07:21:21;;;;;;;2.70;1.85;;;1.50;99.90;;;;;;5048562;28;20033;-39
2023/03/06 07:23:46;;;;;;;1.83;1.65;;;1.60;99.90;;;;;;5047514;28;20521;-39
2023/03/06 07:26:12;;;;;;;1.98;1.58;;;1.60;99.90;;;;;;5036015;28;20134;-37
2023/03/06 07:28:38;;;;;;;2.20;1.55;;;1.60;99.90;;;;;;5039330;28;20052;-37
2023/03/06 07:31:09;;;;;;;1.88;1.33;;;1.60;99.90;;;;;;5033493;28;20552;-37
2023/03/06 07:33:34;;;;;;;2.42;1.52;;;1.70;99.90;;;;;;5042091;28;20036;-40
2023/03/06 07:36:00;;;;;;;1.77;1.52;;;1.60;99.90;;;;;;5037976;28;20535;-37
2023/03/06 07:38:26;;;;;;;1.65;1.35;;;1.60;99.90;;;;;;5037475;28;20038;-37
2023/03/06 07:40:52;;;;;;;2.38;1.52;;;1.60;99.90;;;;;;5042635;28;20436;-37
2023/03/06 07:43:18;;;;;;;2.28;1.55;;;1.60;99.90;;;;;;5043085;28;20135;-38
2023/03/06 07:45:45;;;;;;;4.88;2.58;;;1.60;99.90;;;;;;5041873;28;20033;-36
2023/03/06 07:48:12;;;;;;;2.25;2.05;;;1.60;99.90;;;;;;5035150;28;20042;-37
2023/03/06 07:50:37;;;;;;;2.47;1.67;;;1.60;99.90;;;;;;5045513;28;20047;-38
2023/03/06 07:53:03;;;;;;;2.90;1.90;;;1.70;99.90;;;;;;5045745;28;20497;-40
2023/03/06 07:55:29;;;;;;;3.05;1.83;;;1.80;99.90;;;;;;5051063;28;20121;-36
2023/03/06 07:57:55;;;;;;;2.90;1.83;;;1.90;99.90;;;;;;5044328;28;20044;-36
2023/03/06 08:00:20;;;;;;;2.05;1.85;;;2.10;99.90;;;;;;5043960;28;20038;-36
2023/03/06 08:02:48;;;;;;;3.42;2.00;;;2.10;99.90;;;;;;5036312;28;20037;-37
2023/03/06 08:05:15;;;;;;;3.88;1.90;;;2.30;99.90;;;;;;5046637;28;20033;-39
2023/03/06 08:07:43;;;;;;;3.13;1.80;;;2.40;99.90;;;;;;5051035;28;20052;-37
2023/03/06 08:10:13;;;;;;;5.97;1.80;;;2.60;99.90;;;;;;5037998;28;20036;-37
2023/03/06 08:12:38;;;;;;;1.85;1.50;;;2.70;99.90;;;;;;5040301;28;20075;-37
2023/03/06 08:15:05;;;;;;;3.65;1.40;;;2.80;99.90;;;;;;5043571;28;20042;-40
2023/03/06 08:17:30;;;;;;;3.72;1.73;;;3.00;99.90;;;;;;5044833;28;20108;-38
2023/03/06 08:19:56;;;;;;;2.35;1.38;;;3.20;99.90;;;;;;5041105;28;20476;-40
2023/03/06 08:22:22;;;;;;;2.42;1.42;;;3.70;99.90;;;;;;5042954;28;20498;-37
2023/03/06 08:24:48;;;;;;;1.55;1.33;;;4.30;99.90;;;;;;5050093;28;20069;-37
2023/03/06 08:27:14;;;;;;;2.03;1.40;;;4.80;99.90;;;;;;5047280;28;20037;-37
2023/03/06 08:29:39;;;;;;;2.28;1.10;;;5.30;99.90;;;;;;5047864;28;20049;-37
2023/03/06 08:32:05;;;;;;;1.80;1.40;;;5.60;99.90;;;;;;5041199;28;20424;-38
2023/03/06 08:34:31;;;;;;;1.90;1.10;;;6.10;99.90;;;;;;5042111;28;20494;-38
2023/03/06 08:36:56;;;;;;;1.38;1.17;;;6.30;99.90;;;;;;5042100;28;20029;-40
2023/03/06 08:39:22;;;;;;;2.17;0.82;;;6.60;99.90;;;;;;5051506;28;20119;-37
2023/03/06 08:41:48;;;;;;;2.03;1.10;;;6.70;99.90;;;;;;5044628;28;20034;-37
2023/03/06 08:44:14;;;;;;;2.70;1.08;;;7.00;99.90;;;;;;5053132;28;20033;-37
2023/03/06 08:46:40;;;;;;;1.45;0.85;;;7.20;99.90;;;;;;5046178;28;20029;-38
2023/03/06 08:49:05;;;;;;;0.95;0.80;;;7.50;99.90;;;;;;5038131;28;20083;-38
2023/03/06 08:51:32;;;;;;;0.95;0.75;;;7.70;99.90;;;;;;5034037;28;20037;-38
2023/03/06 08:53:58;;;;;;;1.85;0.90;;;7.90;99.90;;;;;;5051250;28;20040;-39
2023/03/06 08:56:25;;;;;;;1.70;0.90;;;8.20;99.90;;;;;;5041298;28;20037;-37
2023/03/06 08:58:51;;;;;;;3.20;0.98;;;8.40;99.90;;;;;;5037976;28;20045;-37
2023/03/06 09:01:27;;;;;;;7.55;1.50;;;8.50;99.90;;;;;;5040490;28;20042;-40
2023/03/06 09:03:54;;;;;;;1.05;0.60;;;8.80;99.90;;;;;;5048724;28;20037;-38
2023/03/06 09:06:21;;;;;;;0.73;0.30;;;9.00;99.90;;;;;;5046886;28;20040;-38
2023/03/06 09:08:49;;;;;;;0.88;0.65;;;9.30;99.90;;;;;;5048520;28;20041;-38
2023/03/06 09:11:14;;;;;;;2.05;0.95;;;9.40;99.90;;;;;;5044759;28;20048;-38
2023/03/06 09:13:41;;;;;;;2.03;0.77;;;9.30;99.90;;;;;;5043675;28;20032;-38
2023/03/06 09:16:08;;;;;;;0.85;0.75;;;9.10;99.90;;;;;;5034452;28;20086;-37
2023/03/06 09:18:33;;;;;;;1.67;0.70;;;9.00;99.90;;;;;;5042012;28;20041;-39
2023/03/06 09:20:59;;;;;;;1.08;0.98;;;8.80;99.90;;;;;;5037077;28;20033;-38
2023/03/06 09:23:25;;;;;;;1.73;0.80;;;8.70;99.90;;;;;;5038159;28;20090;-38
2023/03/06 09:25:56;;;;;;;1.95;0.70;;;8.90;99.90;;;;;;5047146;28;20040;-37
2023/03/06 09:28:22;;;;;;;1.33;0.70;;;9.30;99.90;;;;;;5049752;28;20045;-38
2023/03/06 09:30:48;;;;;;;1.35;0.70;;;9.60;99.90;;;;;;5050401;28;20033;-38
2023/03/06 09:33:14;;;;;;;2.15;0.70;;;9.70;99.90;;;;;;5046697;28;20470;-37
2023/03/06 09:35:53;;;;;;;0.98;0.65;;;10.10;99.90;;;;;;5042728;28;20250;-38
2023/03/06 09:38:21;;;;;;;1.15;0.90;;;10.70;99.90;;;;;;5042802;28;20130;-38
2023/03/06 09:41:15;;;;;;;1.35;0.70;;;11.00;99.90;;;;;;5047995;28;20037;-38
2023/03/06 09:43:47;;;;;;;0.98;0.50;;;11.10;99.90;;;;;;5045252;28;20033;-37
2023/03/06 09:46:23;;;;;;;2.13;0.80;;;10.90;99.90;;;;;;5044778;28;20405;-39
2023/03/06 09:48:55;;;;;;;0.75;0.63;;;10.60;99.90;;;;;;5078829;22;20042;-34
2023/03/06 09:51:35;;;;;;;2.40;0.95;;;10.30;99.90;;;;;;5012672;28;20061;-34
2023/03/06 09:54:12;;;;;;;2.00;0.88;;;10.30;99.90;;;;;;5008351;28;20434;-35
2023/03/06 09:56:42;;;;;;;1.83;0.77;;;10.60;99.90;;;;;;5009829;28;20038;-34
2023/03/06 09:59:14;;;;;;;1.02;0.55;;;10.90;99.90;;;;;;5008930;28;20038;-34
2023/03/06 10:01:52;;;;;;;2.65;0.63;;;11.40;99.90;;;;;;5002235;28;20499;-34
2023/03/06 10:04:35;;;;;;;1.60;0.80;;;11.50;99.90;;;;;;5006833;28;20042;-34
2023/03/06 10:07:10;;;;;;;;;;;11.80;99.90;;;;;;5009767;28;20041;-34
2023/03/06 10:09:38;;;;;;;1.67;0.50;;;12.10;99.20;;;;;;5008400;28;19918;-35
2023/03/06 10:12:20;;;;;;;0.65;0.50;;;12.60;99.90;;;;;;5003294;28;20108;-35
2023/03/06 10:15:19;;;;;;;1.83;0.70;;;13.10;99.90;;;;;;5020332;28;20052;-35
2023/03/06 10:17:45;;;;;;;1.92;0.50;;;13.50;99.90;;;;;;4999868;28;20049;-35
2023/03/06 10:20:22;;;;;;;2.47;0.40;;;13.80;99.90;;;;;;5005217;28;20038;-35
2023/03/06 10:23:08;;;;;;;2.55;0.60;;;14.00;66.00;;;;;;4997658;28;20035;-35
2023/03/06 10:25:47;;;;;;;1.33;0.55;;;13.70;77.30;;;;;;5009978;28;20038;-35
2023/03/06 10:28:25;;;;;;;2.08;0.40;;;13.80;66.40;;;;;;5010431;28;20113;-35
2023/03/06 10:31:04;;;;;;;0.82;0.50;;;13.80;66.80;;;;;;5008655;28;20076;-35
2023/03/06 10:33:58;;;;;;;2.42;0.88;;;13.40;70.30;;;;;;5010136;28;20080;-35
2023/03/06 10:36:27;;;;;;;3.85;0.77;;;13.00;65.20;;;;;;4999786;28;20042;-35
2023/03/06 10:38:56;;;;;;;3.65;0.90;;;13.50;79.60;;;;;;5018020;28;20273;-35
2023/03/06 10:41:30;;;;;;;1.67;0.77;;;14.20;74.10;;;;;;5007368;28;20034;-35
2023/03/06 10:43:59;;;;;;;2.15;0.50;;;14.60;64.00;;;;;;5008758;28;20439;-35
2023/03/06 10:46:36;;;;;;;1.02;0.77;;;14.70;59.70;;;;;;4997062;28;20048;-35
2023/03/06 10:49:12;;;;;;;1.77;0.52;;;14.50;59.20;;;;;;5004070;28;20678;-35
2023/03/06 10:51:38;;;;;;;2.35;0.90;;;14.40;55.00;;;;;;5007628;28;20142;-35
2023/03/06 10:54:13;;;;;;;2.25;0.82;;;14.20;57.40;;;;;;4996458;28;20538;-35
2023/03/06 10:56:41;;;;;;;4.13;0.60;;;14.60;56.30;;;;;;5003313;28;20042;-35
2023/03/06 10:59:13;;;;;;;2.10;0.43;;;14.90;56.20;;;;;;5003926;28;20042;-35
2023/03/06 11:01:44;;;;;;;2.65;0.80;;;15.40;56.00;;;;;;5009571;28;20487;-35
2023/03/06 11:04:22;;;;;;;3.55;0.70;;;15.60;53.70;;;;;;5005187;28;20410;-36
2023/03/06 11:07:03;;;;;;;1.73;0.60;;;15.70;50.90;;;;;;5005599;28;20045;-35
2023/03/06 11:09:28;;;;;;;2.45;0.70;;;14.50;51.30;;;;;;5005670;28;20249;-35
2023/03/06 11:12:27;;;;;;;2.47;0.50;;;14.00;54.10;;;;;;5009696;28;20060;-35
2023/03/06 11:15:20;;;;;;;3.03;0.60;;;13.50;52.50;;;;;;5008798;28;20045;-35
2023/03/06 11:18:07;;;;;;;1.73;0.40;;;12.60;51.50;;;;;;5009178;28;20030;-35
2023/03/06 11:20:33;;;;;;;1.63;0.70;;;11.80;54.40;;;;;;5009285;28;20038;-35
2023/03/06 11:23:33;;;;;;;1.05;0.55;;;11.20;55.30;;;;;;5000612;28;20049;-34
2023/03/06 11:26:26;;;;;;;2.03;0.45;;;10.70;54.80;;;;;;5009165;28;20045;-34
2023/03/06 11:29:23;;;;;;;2.63;0.82;;;10.20;55.10;;;;;;5007302;28;20042;-35
2023/03/06 11:31:58;;;;;;;2.10;0.50;;;10.10;57.20;;;;;;5003693;28;20041;-35
2023/03/06 11:34:43;;;;;;;0.90;0.40;;;10.90;56.70;;;;;;4998640;28;20081;-34
2023/03/06 11:37:41;;;;;;;2.65;0.60;;;11.30;53.80;;;;;;5011413;28;20073;-35
2023/03/06 11:40:10;;;;;;;2.05;0.60;;;11.20;52.20;;;;;;5010541;28;20042;-35
2023/03/06 11:43:03;;;;;;;2.33;0.50;;;10.80;54.20;;;;;;5011143;28;20049;-35
2023/03/06 11:46:04;;;;;;;1.67;0.50;;;10.30;53.30;;;;;;5009131;28;20054;-34
2023/03/06 11:48:34;;;;;;;0.98;0.50;;;9.80;54.00;;;;;;5015005;28;20049;-35
2023/03/06 11:51:16;;;;;;;2.25;0.55;;;9.50;55.60;;;;;;5012953;28;20045;-34
2023/03/06 11:53:42;;;;;;;1.02;0.47;;;9.40;55.50;;;;;;5010433;28;20038;-35
2023/03/06 11:56:08;;;;;;;2.22;0.60;;;9.20;57.20;;;;;;5009291;28;20399;-34
2023/03/06 11:58:45;;;;;;;3.08;0.75;;;9.10;56.50;;;;;;5010992;28;20046;-34
2023/03/06 12:01:29;;;;;;;1.00;0.65;;;9.00;57.10;;;;;;5008969;28;20045;-35
2023/03/06 12:04:16;;;;;;;1.73;0.60;;;9.10;57.60;;;;;;5005074;28;20460;-34
2023/03/06 12:07:06;;;;;;;1.55;0.80;;;9.40;59.50;;;;;;5004293;28;20547;-34
2023/03/06 12:09:54;;;;;;;1.65;0.75;;;10.00;59.70;;;;;;5006949;28;20026;-34
2023/03/06 12:12:31;;;;;;;2.75;0.80;;;10.10;56.30;;;;;;5007553;28;20439;-35
2023/03/06 12:15:54;;;;;;;2.55;0.98;;;10.10;58.10;;;;;;5011827;28;20044;-35
2023/03/06 12:18:31;;;;;;;1.50;0.70;;;10.70;56.50;;;;;;4990149;28;20038;-34
2023/03/06 12:21:16;;;;;;;1.75;0.65;;;11.40;56.50;;;;;;4992406;28;20050;-34
2023/03/06 12:24:07;;;;;;;1.15;0.68;;;11.60;52.10;;;;;;5007921;28;20120;-35
2023/03/06 12:26:57;;;;;;;1.00;0.50;;;11.20;54.00;;;;;;5007109;28;20096;-35
2023/03/06 12:29:41;;;;;;;1.40;0.60;;;10.90;54.50;;;;;;5006353;28;20065;-34
2023/03/06 12:32:24;;;;;;;1.83;0.70;;;10.60;54.50;;;;;;5010518;28;20041;-34
2023/03/06 12:35:17;;;;;;;1.73;0.80;;;10.50;56.10;;;;;;5007726;28;20042;-35
2023/03/06 12:37:57;;;;;;;1.55;0.65;;;10.20;56.00;;;;;;5007279;28;20053;-34
2023/03/06 12:40:33;;;;;;;2.63;1.00;;;9.90;56.80;;;;;;5008681;28;20030;-34
2023/03/06 12:43:28;;;;;;;2.00;0.90;;;9.70;57.70;;;;;;5008363;28;20052;-34
2023/03/06 12:46:01;;;;;;;1.92;0.90;;;9.50;56.80;;;;;;5001726;28;20093;-35
2023/03/06 12:48:33;;;;;;;2.95;0.80;;;9.30;58.20;;;;;;5010495;28;20662;-35
2023/03/06 12:51:00;;;;;;;4.88;0.95;;;9.20;59.10;;;;;;5008809;28;20037;-35
2023/03/06 12:53:29;;;;;;;2.60;1.17;;;9.10;59.50;;;;;;5010275;28;20039;-34
2023/03/06 12:55:58;;;;;;;1.95;0.57;;;8.90;59.60;;;;;;5005870;28;20042;-36
2023/03/06 12:58:30;;;;;;;1.40;0.60;;;8.80;60.10;;;;;;5010371;28;20115;-36
2023/03/06 13:00:56;;;;;;;1.60;0.77;;;8.70;60.30;;;;;;5003213;28;20069;-36
2023/03/06 13:04:06;;;;;;;1.65;0.88;;;8.70;60.90;;;;;;5004707;28;20395;-36
2023/03/06 13:07:00;;;;;;;1.88;0.80;;;8.60;61.70;;;;;;5002494;28;20049;-36